Terminal Aerodrome Forecast
Issued by NWS Cleveland, OH

Home | Current Version | Previous Version | Text Only | Print | Product List | Glossary On
Versions: 1 2 3 4 5 6 7 8 9 10 11 12 13 14 15
598
FTUS41 KCLE 251126
TAFMFD
TAF
KMFD 251126Z 2512/2612 33005KT 1/2SM FG OVC003
     FM251400 33007KT 2SM BR OVC003
     FM251600 33010KT P6SM OVC008
     FM252100 36009KT P6SM BKN020
     FM260300 01006KT P6SM SCT025
     FM260900 00000KT P6SM SCT200=

USA.gov is the U.S. government's official web portal to all federal, state and local government web resources and services.